Time;durP1;ratioP1;P1;durP2;ratioP2;P2;SDS_P1;SDS_P2;PMS_P1;PMS_P2;Temp;Humidity;BMP_temperature;BMP_pressure;BME280_temperature;BME280_humidity;BME280_pressure;Samples;Min_cycle;Max_cycle;Signal;HPM_P1;HPM_P2
2023/10/15 00:00:17;;;;;;;3.30;1.17;;;6.80;99.90;;;;;;5092340;28;20423;-50
2023/10/15 00:02:46;;;;;;;7.20;1.10;;;6.80;99.90;;;;;;5092130;28;20419;-48
2023/10/15 00:05:15;;;;;;;3.17;1.33;;;6.80;99.90;;;;;;5091809;28;20504;-50
2023/10/15 00:07:41;;;;;;;4.50;1.73;;;6.70;99.90;;;;;;5092139;28;20560;-52
2023/10/15 00:10:12;;;;;;;9.90;1.47;;;6.70;99.90;;;;;;5092180;28;20449;-50
2023/10/15 00:12:38;;;;;;;5.43;1.13;;;6.70;99.90;;;;;;5092411;28;20459;-50
2023/10/15 00:15:07;;;;;;;4.13;1.30;;;6.80;99.90;;;;;;5095988;28;20469;-49
2023/10/15 00:17:33;;;;;;;4.50;1.33;;;6.80;99.90;;;;;;5098190;28;20434;-50
2023/10/15 00:19:59;;;;;;;9.00;1.53;;;6.80;99.90;;;;;;5096112;28;20413;-50
2023/10/15 00:22:24;;;;;;;8.93;1.63;;;6.80;99.90;;;;;;5096259;28;20460;-50
2023/10/15 00:24:50;;;;;;;3.03;1.30;;;6.80;99.90;;;;;;5095958;28;20288;-50
2023/10/15 00:27:17;;;;;;;8.70;1.40;;;6.90;99.90;;;;;;5095814;28;20212;-50
2023/10/15 00:29:43;;;;;;;3.57;1.10;;;6.90;99.90;;;;;;5095544;28;20196;-50
2023/10/15 00:32:09;;;;;;;3.43;1.33;;;6.90;99.90;;;;;;5095467;28;20410;-49
2023/10/15 00:34:35;;;;;;;6.80;1.67;;;6.90;99.90;;;;;;5095413;28;20178;-50
2023/10/15 00:37:01;;;;;;;4.10;1.37;;;6.90;99.90;;;;;;5096037;28;20579;-50
2023/10/15 00:39:27;;;;;;;6.10;1.30;;;6.90;99.90;;;;;;5096256;28;20198;-50
2023/10/15 00:41:53;;;;;;;1.83;1.03;;;6.90;99.90;;;;;;5095410;28;20780;-49
2023/10/15 00:44:20;;;;;;;8.40;1.50;;;6.90;99.90;;;;;;5095774;28;20179;-51
2023/10/15 00:46:54;;;;;;;5.50;1.20;;;6.90;99.90;;;;;;5094807;28;20520;-49
2023/10/15 00:49:24;;;;;;;3.63;1.40;;;7.00;99.90;;;;;;5095217;28;20422;-49
2023/10/15 00:51:51;;;;;;;5.93;1.70;;;7.00;99.90;;;;;;5095102;28;20410;-49
2023/10/15 00:54:17;;;;;;;4.13;1.60;;;7.00;99.90;;;;;;5095227;28;20419;-50
2023/10/15 00:56:47;;;;;;;5.83;1.57;;;6.90;99.90;;;;;;5094957;28;20790;-49
2023/10/15 01:01:53;;;;;;;3.03;1.20;;;6.90;99.90;;;;;;5095241;28;20428;-50
2023/10/15 01:04:24;;;;;;;2.63;1.27;;;6.90;99.90;;;;;;5095092;28;20454;-48
2023/10/15 01:06:50;;;;;;;8.93;1.60;;;7.00;99.90;;;;;;5094797;28;20967;-50
2023/10/15 01:09:20;;;;;;;5.40;2.17;;;7.00;99.90;;;;;;5095031;28;20819;-50
2023/10/15 01:11:56;;;;;;;5.33;1.50;;;7.00;99.90;;;;;;5094779;28;20422;-49
2023/10/15 01:14:31;;;;;;;7.67;1.70;;;7.00;99.90;;;;;;5094858;28;20415;-50
2023/10/15 01:16:57;;;;;;;3.17;1.00;;;6.90;99.90;;;;;;5095230;28;20409;-50
2023/10/15 01:19:33;;;;;;;6.07;1.30;;;7.00;99.90;;;;;;5093298;28;20787;-49
2023/10/15 01:22:02;;;;;;;6.80;1.70;;;7.00;99.90;;;;;;5095581;28;20442;-49
2023/10/15 01:24:41;;;;;;;3.90;1.40;;;7.00;99.90;;;;;;5094121;28;20500;-49
2023/10/15 01:27:09;;;;;;;6.90;1.40;;;6.90;99.90;;;;;;5093632;28;20468;-50
2023/10/15 01:29:44;;;;;;;11.37;1.33;;;6.90;99.90;;;;;;5094781;28;20429;-50
2023/10/15 01:32:11;;;;;;;10.77;1.50;;;6.80;99.90;;;;;;5094547;28;20427;-50
2023/10/15 01:34:48;;;;;;;2.53;1.10;;;6.80;99.90;;;;;;5094673;28;20898;-50
2023/10/15 01:37:18;;;;;;;1.90;1.10;;;6.70;99.90;;;;;;5093682;28;20408;-49
2023/10/15 01:39:52;;;;;;;5.77;1.17;;;6.80;99.90;;;;;;5094273;28;20423;-51
2023/10/15 01:43:06;;;;;;;3.07;1.07;;;6.70;99.90;;;;;;5094712;28;20402;-50
2023/10/15 01:50:16;;;;;;;4.40;1.60;;;6.70;99.90;;;;;;5094493;28;20937;-50
2023/10/15 01:52:42;;;;;;;6.20;1.70;;;6.80;99.90;;;;;;5094037;28;20414;-50
2023/10/15 01:55:09;;;;;;;11.17;1.80;;;6.80;99.90;;;;;;5094437;28;20425;-50
2023/10/15 01:57:36;;;;;;;4.70;1.33;;;6.80;99.90;;;;;;5093446;28;20426;-53
2023/10/15 02:00:14;;;;;;;7.30;1.60;;;6.90;99.90;;;;;;5093621;28;20767;-51
2023/10/15 02:02:43;;;;;;;5.90;1.50;;;6.90;99.90;;;;;;5093713;28;20478;-53
2023/10/15 02:07:53;;;;;;;4.40;1.20;;;6.90;99.90;;;;;;5093991;28;20453;-50
2023/10/15 02:10:19;;;;;;;8.23;1.43;;;6.80;99.90;;;;;;5094130;28;20417;-51
2023/10/15 02:12:51;;;;;;;7.70;1.30;;;6.80;99.90;;;;;;5093638;28;20212;-52
2023/10/15 02:15:22;;;;;;;4.10;0.87;;;6.80;99.90;;;;;;5094013;28;20892;-50
2023/10/15 02:17:51;;;;;;;7.93;1.20;;;6.80;99.90;;;;;;5094037;28;20502;-51
2023/10/15 02:20:26;;;;;;;6.00;1.20;;;6.70;99.90;;;;;;5094658;28;20416;-50
2023/10/15 02:22:53;;;;;;;4.00;1.10;;;6.70;99.90;;;;;;5094450;28;20751;-50
2023/10/15 02:25:26;;;;;;;11.30;1.53;;;6.70;99.90;;;;;;5094244;28;20465;-50
2023/10/15 02:27:51;;;;;;;6.90;1.83;;;6.80;99.90;;;;;;5093432;28;20465;-50
2023/10/15 02:30:17;;;;;;;4.70;1.00;;;6.70;89.20;;;;;;5093734;28;20799;-50
2023/10/15 02:32:43;;;;;;;5.13;1.00;;;6.70;71.60;;;;;;5093582;28;20264;-49
2023/10/15 02:35:13;;;;;;;2.80;1.17;;;6.80;72.60;;;;;;5093709;28;20176;-49
2023/10/15 02:37:40;;;;;;;1.80;0.93;;;6.80;74.90;;;;;;5092956;28;20809;-50
2023/10/15 02:40:16;;;;;;;5.03;1.20;;;6.70;90.50;;;;;;5093438;28;20505;-51
2023/10/15 02:42:52;;;;;;;3.43;1.20;;;6.70;99.90;;;;;;5093754;28;20435;-49
2023/10/15 02:45:23;;;;;;;4.93;1.20;;;6.70;99.90;;;;;;5093417;28;20413;-49
2023/10/15 02:47:49;;;;;;;5.90;1.40;;;6.70;98.50;;;;;;5092968;28;20450;-50
2023/10/15 02:50:23;;;;;;;4.40;1.43;;;6.70;91.80;;;;;;5093002;28;20425;-49
2023/10/15 02:52:49;;;;;;;4.20;1.20;;;6.70;89.40;;;;;;5092601;28;20226;-49
2023/10/15 02:55:15;;;;;;;3.57;1.00;;;6.70;96.00;;;;;;5092671;28;20448;-49
2023/10/15 02:57:42;;;;;;;3.40;1.30;;;6.60;99.90;;;;;;5093361;28;20426;-49
2023/10/15 03:00:13;;;;;;;5.83;1.37;;;6.60;99.90;;;;;;5092352;28;20235;-50
2023/10/15 03:02:45;;;;;;;4.97;1.00;;;6.60;99.90;;;;;;5092939;28;20900;-49
2023/10/15 03:05:15;;;;;;;4.27;1.30;;;6.60;99.90;;;;;;5093291;28;20427;-49
2023/10/15 03:07:44;;;;;;;3.67;0.93;;;6.60;99.90;;;;;;5092777;28;20484;-49
2023/10/15 03:10:21;;;;;;;4.60;1.30;;;6.60;99.90;;;;;;5092716;28;20512;-49
2023/10/15 03:12:47;;;;;;;3.87;1.20;;;6.60;99.90;;;;;;5092813;28;20511;-49
2023/10/15 03:15:20;;;;;;;1.73;1.00;;;6.60;99.90;;;;;;5092519;28;20901;-51
2023/10/15 03:17:46;;;;;;;3.37;0.80;;;6.60;49.60;;;;;;5092498;28;20416;-50
2023/10/15 03:22:42;;;;;;;5.87;1.00;;;6.50;1.00;;;;;;5092495;28;20188;-52
2023/10/15 03:25:13;;;;;;;1.83;1.17;;;6.50;14.20;;;;;;5092317;28;20470;-50
2023/10/15 03:27:39;;;;;;;3.60;1.00;;;6.50;31.20;;;;;;5092887;28;20549;-49
2023/10/15 03:30:05;;;;;;;3.97;1.10;;;6.50;42.60;;;;;;5092033;28;20440;-50
2023/10/15 03:32:37;;;;;;;3.73;0.90;;;6.50;54.50;;;;;;5092364;28;20415;-51
2023/10/15 03:35:08;;;;;;;2.87;0.90;;;6.50;70.30;;;;;;5092663;28;20414;-50
2023/10/15 03:37:45;;;;;;;4.53;1.27;;;6.50;99.90;;;;;;5092460;28;20417;-50
2023/10/15 03:40:13;;;;;;;9.17;1.40;;;6.50;99.90;;;;;;5092286;28;20410;-50
2023/10/15 03:42:40;;;;;;;6.83;1.50;;;6.60;99.90;;;;;;5092578;28;20427;-49
2023/10/15 03:45:09;;;;;;;3.07;1.40;;;6.60;99.90;;;;;;5092241;28;20422;-49
2023/10/15 03:47:46;;;;;;;4.30;1.33;;;6.60;99.90;;;;;;5091752;28;20459;-49
2023/10/15 03:50:15;;;;;;;3.90;1.43;;;6.60;99.90;;;;;;5091574;28;21233;-48
2023/10/15 03:52:43;;;;;;;7.37;2.80;;;6.60;99.90;;;;;;5092113;28;20480;-49
2023/10/15 03:55:09;;;;;;;7.23;1.43;;;6.50;99.90;;;;;;5091884;28;20417;-49
2023/10/15 03:57:36;;;;;;;4.87;1.60;;;6.50;99.90;;;;;;5092290;28;20506;-50
2023/10/15 04:00:13;;;;;;;6.67;1.47;;;6.50;99.90;;;;;;5092263;28;20558;-50
2023/10/15 04:05:28;;;;;;;4.03;1.47;;;6.50;99.90;;;;;;5092025;28;20422;-49
2023/10/15 04:07:53;;;;;;;6.10;1.10;;;6.40;99.90;;;;;;5091905;28;20992;-49
2023/10/15 04:10:23;;;;;;;2.53;1.20;;;6.40;99.90;;;;;;5091984;28;20496;-49
2023/10/15 04:12:51;;;;;;;3.80;1.43;;;6.40;99.90;;;;;;5091656;28;20266;-50
2023/10/15 04:15:17;;;;;;;5.77;1.20;;;6.30;99.90;;;;;;5092127;28;20402;-49
2023/10/15 04:17:45;;;;;;;2.67;1.23;;;6.40;98.50;;;;;;5092268;28;20902;-49
2023/10/15 04:20:15;;;;;;;6.33;1.23;;;6.30;95.70;;;;;;5091362;28;20248;-49
2023/10/15 04:22:46;;;;;;;4.03;1.27;;;6.30;76.40;;;;;;5091963;28;20414;-50
2023/10/15 04:25:26;;;;;;;8.00;1.20;;;6.30;60.00;;;;;;5091301;28;20480;-50
2023/10/15 04:27:53;;;;;;;2.70;1.10;;;6.20;54.20;;;;;;5091469;28;20457;-50
2023/10/15 04:30:23;;;;;;;4.07;1.27;;;6.20;62.40;;;;;;5091665;28;20509;-53
2023/10/15 04:32:49;;;;;;;4.53;1.20;;;6.20;89.20;;;;;;5092031;28;20410;-49
2023/10/15 04:35:29;;;;;;;3.83;1.10;;;6.20;73.80;;;;;;5091761;28;20414;-49
2023/10/15 04:37:58;;;;;;;6.40;1.40;;;6.20;96.30;;;;;;5092211;28;20185;-49
2023/10/15 04:40:23;;;;;;;6.27;1.30;;;6.20;96.80;;;;;;5091837;28;20459;-49
2023/10/15 04:42:52;;;;;;;3.63;1.10;;;6.20;99.90;;;;;;5091557;28;20414;-49
2023/10/15 04:45:44;;;;;;;3.13;1.07;;;6.20;99.90;;;;;;5091647;28;20193;-49
2023/10/15 04:48:13;;;;;;;11.43;1.77;;;6.10;99.90;;;;;;5090536;28;20870;-49
2023/10/15 04:50:40;;;;;;;7.57;1.13;;;6.20;99.90;;;;;;5091726;28;20419;-50
2023/10/15 04:55:42;;;;;;;6.07;1.83;;;6.10;99.90;;;;;;5091985;28;20497;-50
2023/10/15 04:58:08;;;;;;;4.90;1.13;;;6.10;99.90;;;;;;5091452;28;20430;-50
2023/10/15 05:00:35;;;;;;;3.57;1.20;;;6.20;99.90;;;;;;5093737;28;20414;-50
2023/10/15 05:03:01;;;;;;;4.70;1.30;;;6.20;99.90;;;;;;5095045;28;20856;-55
2023/10/15 05:05:27;;;;;;;4.57;1.10;;;6.30;99.90;;;;;;5095633;28;20525;-49
2023/10/15 05:07:57;;;;;;;4.20;1.30;;;6.30;99.90;;;;;;5095962;28;20462;-49
2023/10/15 05:10:23;;;;;;;1.77;1.00;;;6.20;99.90;;;;;;5097216;28;20185;-48
2023/10/15 05:12:51;;;;;;;6.00;1.10;;;6.20;99.90;;;;;;5095111;28;20421;-49
2023/10/15 05:15:18;;;;;;;4.53;0.90;;;6.20;99.90;;;;;;5095024;28;20425;-51
2023/10/15 05:17:46;;;;;;;4.40;1.10;;;6.20;99.90;;;;;;5094814;28;20417;-54
2023/10/15 05:20:13;;;;;;;1.30;1.00;;;6.20;99.90;;;;;;5094681;28;20437;-49
2023/10/15 05:22:39;;;;;;;3.43;1.00;;;6.20;99.90;;;;;;5095119;28;20433;-49
2023/10/15 05:25:05;;;;;;;5.40;1.10;;;6.20;99.90;;;;;;5094751;28;20509;-50
2023/10/15 05:27:32;;;;;;;3.90;1.20;;;6.20;99.90;;;;;;5094063;28;20938;-51
2023/10/15 05:29:58;;;;;;;6.90;1.23;;;6.30;99.90;;;;;;5094992;28;20214;-49
2023/10/15 05:32:24;;;;;;;3.17;1.00;;;6.20;99.90;;;;;;5094421;28;20414;-49
2023/10/15 05:34:50;;;;;;;3.17;0.90;;;6.20;99.90;;;;;;5094634;28;20452;-49
2023/10/15 05:37:16;;;;;;;7.47;1.43;;;6.20;99.90;;;;;;5094061;28;20220;-49
2023/10/15 05:39:41;;;;;;;5.03;1.10;;;6.30;99.90;;;;;;5094778;28;20271;-49
2023/10/15 05:42:07;;;;;;;2.67;1.00;;;6.30;99.90;;;;;;5094232;28;20444;-49
2023/10/15 05:44:34;;;;;;;4.80;1.10;;;6.30;99.90;;;;;;5094921;28;20223;-49
2023/10/15 05:47:00;;;;;;;3.40;0.90;;;6.30;99.90;;;;;;5094724;28;20217;-55
2023/10/15 05:49:26;;;;;;;5.80;1.17;;;6.40;99.90;;;;;;5094564;28;20453;-49
2023/10/15 05:51:51;;;;;;;1.93;0.90;;;6.40;99.90;;;;;;5094140;28;20188;-49
2023/10/15 05:54:17;;;;;;;6.27;1.30;;;6.40;99.90;;;;;;5094247;28;20196;-50
2023/10/15 05:56:43;;;;;;;3.10;1.30;;;6.40;99.90;;;;;;5093754;28;20181;-50
2023/10/15 05:59:08;;;;;;;6.67;1.70;;;6.40;99.90;;;;;;5093852;28;20212;-50
2023/10/15 06:01:34;;;;;;;6.50;1.20;;;6.40;99.90;;;;;;5094002;28;20183;-49
2023/10/15 06:04:00;;;;;;;7.10;1.30;;;6.30;98.50;;;;;;5094378;28;20266;-49
2023/10/15 06:06:25;;;;;;;2.30;1.17;;;6.30;99.90;;;;;;5094384;28;20639;-49
2023/10/15 06:08:53;;;;;;;4.03;1.03;;;6.30;99.90;;;;;;5094258;28;20207;-50
2023/10/15 06:11:19;;;;;;;4.60;1.20;;;6.20;99.90;;;;;;5092643;28;20198;-49
2023/10/15 06:13:44;;;;;;;5.80;1.30;;;6.30;99.90;;;;;;5093949;28;20989;-50
2023/10/15 06:16:10;;;;;;;2.60;1.50;;;6.30;99.90;;;;;;5093954;28;20170;-49
2023/10/15 06:18:36;;;;;;;4.13;1.20;;;6.30;99.90;;;;;;5093757;28;20282;-49
2023/10/15 06:21:01;;;;;;;3.40;1.27;;;6.30;99.90;;;;;;5093277;28;20183;-50
2023/10/15 06:23:27;;;;;;;4.00;1.30;;;6.30;99.90;;;;;;5094505;28;20191;-49
2023/10/15 06:25:53;;;;;;;3.23;1.20;;;6.30;99.90;;;;;;5093342;28;20958;-52
2023/10/15 06:28:20;;;;;;;6.53;1.20;;;6.30;99.90;;;;;;5093773;28;20264;-49
2023/10/15 06:30:45;;;;;;;5.53;1.17;;;6.30;99.90;;;;;;5093700;28;20430;-49
2023/10/15 06:33:11;;;;;;;3.50;1.27;;;6.40;99.90;;;;;;5093207;28;20416;-49
2023/10/15 06:35:40;;;;;;;7.53;1.80;;;6.30;99.90;;;;;;5093960;28;20193;-49
2023/10/15 06:38:05;;;;;;;5.00;1.60;;;6.30;99.90;;;;;;5093619;28;20429;-49
2023/10/15 06:40:31;;;;;;;7.83;1.57;;;6.40;99.90;;;;;;5092507;28;20417;-56
2023/10/15 06:43:00;;;;;;;6.73;1.37;;;6.40;99.90;;;;;;5093941;28;20194;-54
2023/10/15 06:45:27;;;;;;;3.90;1.20;;;6.40;99.90;;;;;;5093976;28;20427;-49
2023/10/15 06:47:53;;;;;;;3.27;1.00;;;6.50;99.90;;;;;;5093371;28;20857;-49
2023/10/15 06:50:19;;;;;;;3.63;1.20;;;6.40;99.90;;;;;;5093278;28;20409;-50
2023/10/15 06:52:45;;;;;;;2.10;1.10;;;6.50;76.80;;;;;;5092608;28;20212;-50
2023/10/15 06:55:13;;;;;;;1.80;1.00;;;6.50;27.40;;;;;;5093226;28;20491;-50
2023/10/15 06:57:39;;;;;;;3.77;0.90;;;6.50;25.30;;;;;;5092771;28;20196;-49
2023/10/15 07:00:10;;;;;;;1.60;1.07;;;6.60;31.10;;;;;;5093172;28;20759;-50
2023/10/15 07:02:36;;;;;;;4.50;1.13;;;6.60;47.40;;;;;;5092926;28;20506;-50
2023/10/15 07:05:05;;;;;;;3.63;1.10;;;6.60;26.60;;;;;;5092858;28;20429;-50
2023/10/15 07:07:33;;;;;;;2.33;1.00;;;6.70;20.90;;;;;;5092228;28;20477;-54
2023/10/15 07:10:06;;;;;;;1.83;1.30;;;6.70;15.90;;;;;;5093294;28;20415;-49
2023/10/15 07:12:32;;;;;;;2.43;1.33;;;6.70;9.90;;;;;;5091046;28;20417;-50
2023/10/15 07:14:58;;;;;;;4.03;1.20;;;6.70;4.60;;;;;;5092944;28;20476;-49
2023/10/15 07:17:23;;;;;;;5.40;1.20;;;6.70;1.00;;;;;;5092291;28;20417;-50
2023/10/15 07:19:49;;;;;;;4.73;1.30;;;6.60;1.00;;;;;;5092832;28;20471;-49
2023/10/15 07:22:14;;;;;;;2.87;1.20;;;6.70;20.20;;;;;;5092594;28;20230;-49
2023/10/15 07:24:40;;;;;;;3.00;1.17;;;6.70;56.40;;;;;;5091415;28;20235;-49
2023/10/15 07:27:06;;;;;;;2.53;1.00;;;6.60;65.00;;;;;;5092083;28;20182;-49
2023/10/15 07:29:31;;;;;;;8.13;1.43;;;6.60;99.90;;;;;;5092566;28;20180;-49
2023/10/15 07:31:57;;;;;;;5.40;1.30;;;6.60;99.90;;;;;;5092730;28;20552;-50
2023/10/15 07:34:23;;;;;;;6.33;1.43;;;6.60;99.90;;;;;;5092334;28;20229;-51
2023/10/15 07:36:55;;;;;;;2.50;1.40;;;6.60;76.40;;;;;;5095726;28;20190;-49
2023/10/15 07:39:22;;;;;;;8.07;1.43;;;6.60;9.70;;;;;;5093444;28;20494;-52
2023/10/15 07:41:48;;;;;;;2.23;0.90;;;6.60;23.50;;;;;;5092086;28;20418;-50
2023/10/15 07:44:15;;;;;;;5.00;1.40;;;6.60;51.60;;;;;;5092525;28;20410;-49
2023/10/15 07:46:42;;;;;;;8.10;1.30;;;6.60;71.00;;;;;;5091909;28;20193;-50
2023/10/15 07:49:09;;;;;;;3.00;1.40;;;6.60;81.70;;;;;;5092033;28;20464;-49
2023/10/15 07:51:35;;;;;;;3.63;1.40;;;6.50;94.60;;;;;;5092418;28;20438;-50
2023/10/15 07:54:03;;;;;;;8.90;2.00;;;6.60;99.90;;;;;;5092425;28;20411;-58
2023/10/15 07:56:29;;;;;;;5.03;1.70;;;6.60;99.90;;;;;;5092874;28;20202;-50
2023/10/15 07:58:54;;;;;;;3.70;1.70;;;6.70;99.90;;;;;;5091373;28;20522;-50
2023/10/15 08:01:20;;;;;;;3.17;1.50;;;6.70;99.90;;;;;;5091967;28;20190;-50
2023/10/15 08:03:45;;;;;;;3.73;1.53;;;6.80;94.10;;;;;;5092321;28;20175;-50
2023/10/15 08:06:11;;;;;;;5.43;1.50;;;6.70;49.50;;;;;;5091626;28;20188;-50
2023/10/15 08:08:37;;;;;;;6.30;1.50;;;6.60;1.00;;;;;;5091966;28;20207;-50
2023/10/15 08:11:02;;;;;;;3.50;1.70;;;6.70;1.00;;;;;;5091982;28;20186;-50
2023/10/15 08:13:28;;;;;;;3.90;1.33;;;6.60;1.00;;;;;;5092372;28;20183;-50
2023/10/15 08:15:54;;;;;;;3.03;1.03;;;6.60;1.00;;;;;;5091952;28;20189;-54
2023/10/15 08:18:20;;;;;;;2.20;1.00;;;6.80;1.00;;;;;;5092307;28;20517;-51
2023/10/15 08:20:46;;;;;;;3.10;1.50;;;6.90;1.00;;;;;;5091912;28;20204;-51
2023/10/15 08:23:11;;;;;;;3.57;1.27;;;6.90;1.00;;;;;;5092496;28;20497;-50
2023/10/15 08:25:37;;;;;;;5.00;1.93;;;7.00;99.90;;;;;;5091631;28;20310;-50
2023/10/15 08:28:03;;;;;;;4.40;1.40;;;6.90;99.90;;;;;;5091793;28;20667;-50
2023/10/15 08:30:31;;;;;;;1.27;1.13;;;6.80;1.00;;;;;;5092233;28;20193;-50
2023/10/15 08:32:56;;;;;;;1.43;1.17;;;6.80;1.00;;;;;;5092331;28;20419;-50
2023/10/15 08:35:22;;;;;;;2.90;1.30;;;6.80;1.00;;;;;;5093283;28;20466;-50
2023/10/15 08:37:47;;;;;;;2.80;1.30;;;6.90;1.00;;;;;;5095322;28;20189;-50
2023/10/15 08:40:17;;;;;;;2.73;1.47;;;6.90;1.00;;;;;;5095311;28;20191;-50
2023/10/15 08:42:49;;;;;;;3.23;1.07;;;7.00;99.90;;;;;;5095908;28;20188;-51
2023/10/15 08:45:21;;;;;;;3.70;1.47;;;7.10;1.00;;;;;;5095670;28;20440;-50
2023/10/15 08:47:47;;;;;;;2.50;1.00;;;7.20;99.90;;;;;;5095073;28;20804;-51
2023/10/15 08:50:16;;;;;;;1.10;1.00;;;7.20;99.90;;;;;;5095412;28;20429;-50
2023/10/15 08:52:43;;;;;;;5.33;1.50;;;7.10;99.90;;;;;;5095701;28;20406;-50
2023/10/15 08:55:09;;;;;;;2.77;1.17;;;7.00;99.90;;;;;;5095496;28;20470;-51
2023/10/15 08:57:36;;;;;;;3.17;0.80;;;7.00;99.90;;;;;;5094735;28;20883;-51
2023/10/15 09:00:04;;;;;;;2.93;0.97;;;7.00;1.00;;;;;;5094723;28;20918;-51
2023/10/15 09:02:31;;;;;;;1.20;1.00;;;7.00;1.00;;;;;;5095816;28;20786;-50
2023/10/15 09:04:56;;;;;;;3.27;1.10;;;7.10;99.90;;;;;;5095746;28;20464;-51
2023/10/15 09:07:23;;;;;;;5.37;1.50;;;7.00;99.90;;;;;;5095186;28;20464;-49
2023/10/15 09:09:51;;;;;;;2.40;1.00;;;7.10;99.90;;;;;;5094627;28;20219;-50
2023/10/15 09:12:18;;;;;;;5.33;0.83;;;7.00;99.90;;;;;;5094554;28;20921;-50
2023/10/15 09:14:48;;;;;;;1.27;0.80;;;7.10;1.00;;;;;;5095014;28;20414;-50
2023/10/15 09:17:17;;;;;;;1.93;1.03;;;7.30;1.00;;;;;;5095148;28;20423;-51
2023/10/15 09:19:44;;;;;;;4.97;1.40;;;7.60;1.00;;;;;;5095386;28;20433;-50
2023/10/15 09:22:16;;;;;;;2.37;1.00;;;8.00;1.00;;;;;;5094654;28;20410;-51
2023/10/15 09:24:43;;;;;;;1.67;1.23;;;8.00;1.00;;;;;;5094152;28;20469;-54
2023/10/15 09:27:09;;;;;;;4.57;1.30;;;7.90;1.00;;;;;;5094660;28;20434;-49
2023/10/15 09:29:35;;;;;;;4.70;1.07;;;7.80;9.60;;;;;;5094604;28;20417;-50
2023/10/15 09:32:04;;;;;;;3.77;1.10;;;7.60;99.90;;;;;;5094533;28;20410;-57
2023/10/15 09:34:30;;;;;;;7.63;1.83;;;7.70;99.90;;;;;;5094599;28;20188;-50
2023/10/15 09:36:58;;;;;;;4.07;1.20;;;7.70;99.90;;;;;;5094957;28;20447;-50
2023/10/15 09:39:27;;;;;;;2.23;0.97;;;7.70;99.90;;;;;;5094637;28;20833;-50
2023/10/15 09:41:55;;;;;;;2.50;1.00;;;7.70;99.90;;;;;;5094410;28;20415;-51
2023/10/15 09:44:20;;;;;;;3.00;1.47;;;7.70;99.90;;;;;;5094325;28;20432;-51
2023/10/15 09:46:47;;;;;;;3.70;1.20;;;7.60;99.90;;;;;;5093253;28;20420;-50
2023/10/15 09:49:13;;;;;;;2.40;1.10;;;7.50;99.90;;;;;;5094267;28;20206;-51
2023/10/15 09:51:40;;;;;;;5.23;1.20;;;7.50;1.00;;;;;;5094566;28;20421;-51
2023/10/15 09:54:13;;;;;;;3.77;1.50;;;7.50;1.00;;;;;;5094284;28;20414;-50
2023/10/15 09:56:41;;;;;;;2.30;1.20;;;7.40;1.00;;;;;;5094368;28;20410;-50
2023/10/15 09:59:09;;;;;;;2.10;1.27;;;7.40;1.00;;;;;;5093878;28;20422;-51
2023/10/15 10:01:39;;;;;;;3.00;1.20;;;7.40;1.00;;;;;;5095414;28;20422;-51
2023/10/15 10:04:24;;;;;;;5.60;1.20;;;7.30;1.00;;;;;;5095823;28;20419;-50
2023/10/15 10:07:10;;;;;;;4.00;1.10;;;7.40;1.00;;;;;;5094290;28;20413;-50
2023/10/15 10:10:29;;;;;;;4.17;1.27;;;7.70;1.00;;;;;;5093340;28;21090;-50
2023/10/15 10:13:13;;;;;;;2.50;1.33;;;8.10;1.00;;;;;;5093772;28;20459;-51
2023/10/15 10:15:54;;;;;;;4.57;1.20;;;8.50;1.00;;;;;;5094035;28;20427;-51
2023/10/15 10:18:21;;;;;;;6.27;1.70;;;8.70;99.90;;;;;;5093951;28;20486;-51
2023/10/15 10:20:48;;;;;;;3.63;1.33;;;8.70;99.90;;;;;;5093326;28;20902;-51
2023/10/15 10:23:14;;;;;;;2.90;1.50;;;8.70;99.90;;;;;;5093884;28;20503;-51
2023/10/15 10:25:47;;;;;;;4.23;1.20;;;8.80;99.90;;;;;;5093344;28;20477;-51
2023/10/15 10:28:19;;;;;;;3.40;1.20;;;8.90;53.50;;;;;;5093750;28;20462;-50
2023/10/15 10:30:59;;;;;;;3.03;1.23;;;8.80;99.90;;;;;;5093322;28;20423;-51
2023/10/15 10:33:42;;;;;;;1.67;1.20;;;8.50;99.90;;;;;;5093641;28;20414;-51
2023/10/15 10:36:15;;;;;;;2.07;1.10;;;8.40;84.70;;;;;;5093434;28;20449;-51
2023/10/15 10:38:41;;;;;;;3.40;1.30;;;8.50;1.00;;;;;;5093092;28;20930;-51
2023/10/15 10:41:14;;;;;;;4.00;1.30;;;9.40;1.00;;;;;;5093357;28;20467;-52
2023/10/15 10:43:42;;;;;;;4.80;1.60;;;10.90;95.70;;;;;;5093202;28;20428;-52
2023/10/15 10:46:19;;;;;;;4.43;1.33;;;11.40;99.90;;;;;;5093132;28;20466;-51
2023/10/15 10:49:01;;;;;;;3.20;1.37;;;11.20;21.70;;;;;;5092835;28;20491;-52
2023/10/15 10:51:35;;;;;;;4.43;1.20;;;11.20;7.50;;;;;;5094161;28;20414;-51
2023/10/15 10:54:03;;;;;;;3.13;1.40;;;12.10;99.90;;;;;;5093619;28;20420;-53
2023/10/15 10:56:40;;;;;;;2.17;1.10;;;13.50;1.00;;;;;;5094725;28;20422;-51
2023/10/15 10:59:11;;;;;;;4.70;1.20;;;14.60;1.00;;;;;;5093714;28;20439;-52
2023/10/15 11:01:39;;;;;;;3.90;1.00;;;14.70;1.00;;;;;;5093122;28;20519;-52
2023/10/15 11:04:05;;;;;;;3.03;1.10;;;14.90;1.00;;;;;;5092714;28;20827;-52
2023/10/15 11:06:33;;;;;;;3.07;1.10;;;15.50;1.00;;;;;;5092627;28;20925;-56
2023/10/15 11:09:00;;;;;;;5.87;1.40;;;16.00;1.00;;;;;;5092510;28;20474;-53
2023/10/15 11:11:26;;;;;;;5.43;1.30;;;16.70;1.00;;;;;;5093206;28;20432;-52
2023/10/15 11:13:54;;;;;;;2.77;1.17;;;16.50;1.00;;;;;;5093022;28;20434;-51
2023/10/15 11:16:21;;;;;;;2.00;1.30;;;16.60;1.00;;;;;;5092682;28;20205;-53
2023/10/15 11:18:47;;;;;;;4.60;1.37;;;17.50;1.00;;;;;;5091710;28;20911;-53
2023/10/15 11:21:13;;;;;;;3.63;1.20;;;17.00;1.00;;;;;;5092748;28;20469;-52
2023/10/15 11:23:39;;;;;;;4.27;1.30;;;15.10;1.00;;;;;;5092709;28;20184;-52
2023/10/15 11:26:08;;;;;;;5.30;1.80;;;13.50;1.00;;;;;;5091291;28;20516;-52
2023/10/15 11:28:34;;;;;;;4.87;1.20;;;12.60;1.00;;;;;;5092282;28;20212;-53
2023/10/15 11:31:02;;;;;;;4.13;1.50;;;13.30;1.00;;;;;;5092350;28;20513;-52
2023/10/15 11:33:28;;;;;;;3.80;1.60;;;13.70;1.00;;;;;;5092990;28;20422;-51
2023/10/15 11:35:55;;;;;;;2.60;1.33;;;13.00;1.00;;;;;;5092730;28;20469;-50
2023/10/15 11:38:31;;;;;;;5.57;1.77;;;12.20;1.00;;;;;;5092436;28;20926;-50
2023/10/15 11:40:57;;;;;;;4.67;1.50;;;11.50;1.00;;;;;;5092487;28;20439;-51
2023/10/15 11:43:23;;;;;;;2.80;1.20;;;10.90;1.00;;;;;;5092153;28;20413;-51
2023/10/15 11:45:49;;;;;;;2.83;1.60;;;10.50;1.00;;;;;;5092547;28;20737;-50
2023/10/15 11:48:21;;;;;;;5.17;1.57;;;10.40;38.40;;;;;;5092294;28;20686;-50
2023/10/15 11:50:48;;;;;;;4.70;1.50;;;10.90;99.90;;;;;;5090737;28;20429;-51
2023/10/15 11:53:21;;;;;;;5.10;1.50;;;12.30;1.00;;;;;;5092175;28;20419;-52
2023/10/15 11:55:47;;;;;;;2.50;1.20;;;13.90;1.00;;;;;;5092289;28;20421;-53
2023/10/15 11:58:16;;;;;;;3.07;1.30;;;15.70;1.00;;;;;;5092363;28;20438;-52
2023/10/15 12:00:42;;;;;;;4.73;1.40;;;16.50;1.00;;;;;;5092061;28;20887;-52
2023/10/15 12:03:09;;;;;;;4.23;1.60;;;15.70;1.00;;;;;;5091668;28;20420;-52
2023/10/15 12:05:37;;;;;;;3.40;1.23;;;15.70;1.00;;;;;;5092113;28;20430;-55
2023/10/15 12:08:03;;;;;;;2.30;1.40;;;16.50;1.00;;;;;;5092410;28;20454;-53
2023/10/15 12:10:30;;;;;;;2.73;1.50;;;15.90;1.00;;;;;;5094332;28;20419;-53
2023/10/15 12:12:56;;;;;;;6.63;1.80;;;14.90;1.00;;;;;;5096116;28;20422;-52
2023/10/15 12:15:22;;;;;;;4.40;1.40;;;14.10;1.00;;;;;;5096644;28;20476;-52
2023/10/15 12:17:48;;;;;;;5.03;1.40;;;13.30;1.00;;;;;;5096528;28;20418;-51
2023/10/15 12:20:17;;;;;;;5.33;1.77;;;13.20;1.00;;;;;;5095987;28;20184;-51
2023/10/15 12:22:43;;;;;;;5.73;1.20;;;12.60;1.00;;;;;;5095951;28;20183;-51
2023/10/15 12:25:09;;;;;;;7.30;1.60;;;11.70;1.00;;;;;;5095997;28;20469;-51
2023/10/15 12:27:35;;;;;;;3.50;1.50;;;11.10;1.00;;;;;;5096111;28;20512;-51
2023/10/15 12:30:05;;;;;;;4.30;1.33;;;10.70;1.00;;;;;;5096199;28;20194;-57
2023/10/15 12:32:31;;;;;;;6.03;1.40;;;10.30;1.00;;;;;;5096263;28;20635;-56
2023/10/15 12:34:57;;;;;;;5.00;1.67;;;10.20;1.00;;;;;;5097759;28;20437;-50
2023/10/15 12:37:29;;;;;;;4.53;1.80;;;10.90;1.00;;;;;;5097053;28;20418;-51
2023/10/15 12:39:55;;;;;;;3.13;1.40;;;12.30;1.00;;;;;;5095297;28;20410;-51
2023/10/15 12:42:21;;;;;;;3.10;1.50;;;13.90;1.00;;;;;;5095648;28;20826;-52
2023/10/15 12:44:47;;;;;;;5.77;1.87;;;14.80;1.00;;;;;;5096087;28;20178;-52
2023/10/15 12:47:13;;;;;;;7.83;1.50;;;15.50;1.00;;;;;;5095298;28;20432;-52
2023/10/15 12:49:42;;;;;;;3.43;1.40;;;16.60;1.00;;;;;;5095717;28;20484;-53
2023/10/15 12:52:11;;;;;;;5.63;1.20;;;17.00;1.00;;;;;;5095659;28;20356;-55
2023/10/15 12:54:36;;;;;;;4.93;1.37;;;16.80;1.00;;;;;;5095389;28;20780;-53
2023/10/15 12:57:05;;;;;;;2.90;1.33;;;16.30;1.00;;;;;;5095429;28;20411;-54
2023/10/15 12:59:31;;;;;;;3.63;1.63;;;15.40;1.00;;;;;;5095349;28;20193;-57
2023/10/15 13:01:57;;;;;;;8.30;1.80;;;14.50;1.00;;;;;;5095412;28;20414;-53
2023/10/15 13:04:24;;;;;;;4.17;1.60;;;13.60;1.00;;;;;;5095585;28;20175;-52
2023/10/15 13:06:49;;;;;;;5.23;1.40;;;12.70;1.00;;;;;;5095296;28;20181;-52
2023/10/15 13:09:25;;;;;;;4.27;1.50;;;12.00;1.00;;;;;;5094823;28;20465;-51
2023/10/15 13:11:52;;;;;;;4.50;1.13;;;11.50;1.00;;;;;;5094885;28;20194;-50
2023/10/15 13:14:19;;;;;;;6.00;1.40;;;11.30;1.00;;;;;;5095252;28;20421;-49
2023/10/15 13:16:46;;;;;;;4.70;1.47;;;11.20;1.00;;;;;;5094821;28;20891;-49
2023/10/15 13:19:13;;;;;;;9.00;1.60;;;11.00;1.00;;;;;;5094720;28;20460;-52
2023/10/15 13:21:39;;;;;;;4.47;1.40;;;10.80;1.00;;;;;;5094865;28;20417;-51